Flora Vista, NM (87415)

5:09 AM MST on December 05, 2016 (GMT -0700)
Crouch Mesa | | Change Station

Elev 5876 ft 36.77 °N, 108.06 °W | Updated 1 second ago

Clear
Clear
24.3 °F
Feels Like 19 °F
N
3.8
Wind Variable Wind from NE
Gusts 3.8 mph

Today
High -- | Low -- °F
--% Chance of Precip.
Yesterday
High -- | Low -- °F
Precip. -- in
Pressure 29.98 in
Visibility 10.0 miles
Clouds Clear
Windchill 19 °F
Dew Point 18 °F
Humidity 77%
Rainfall 0.00 in
Snow Depth Not available.
7:10 AM 4:55 PM
Waxing Crescent, 31% visible
METAR KFMN 051153Z AUTO 09005KT 10SM CLR M06/M08 A2992 RMK AO2 SLP152 T10611078 11033 21067 56019
Pressure 29.98 in
Visibility 10.0 miles
Clouds Clear
Windchill 19 °F
Dew Point 18 °F
Humidity 77%
Rainfall 0.00 in
Snow Depth Not available.
7:10 AM 4:55 PM
Waxing Crescent, 31% visible
METAR KFMN 051153Z AUTO 09005KT 10SM CLR M06/M08 A2992 RMK AO2 SLP152 T10611078 11033 21067 56019

10-Day Weather Forecast

Almanac

Astronomy

Dec. 05, 2016 Rise Set
Actual Time
Civil Twilight
Nautical Twilight
Astronomical Twilight
Moon
Length of Visible Light
Length of Day
Tomorrow will be .
, % of the Moon is Illuminated

Today's Extremes

State Highs State Lows

Community

WunderPhotos

Upload Photos

1,955,779 photos uploaded!

WunderBlog® & News

Nearby

Air Quality

  Air Quality AQ Index Pollutant
Not available.

Snow Depth

Station Depth Elevation

Earthquake Activity

City Distance Mag. Time & Date
Minimum magnitude displayed is 2.5.

Coastal Water Temperatures

Place Temperature

Stations

Nearby Weather Stations

Station Location Temp. Windchill Dew Point Humidity Wind Precip. Elev Updated Type
                   

Watches & Warnings

There are currently no watches in effect.